Mason, MI

6:04 AM EST on December 09, 2016 (GMT -0500)
Mason Jewett | | Change Station

Elev 919 ft 42.57 °N, 84.42 °W | Updated 11 minutes ago

Light Snow
Light Snow
27 °F
Feels Like 20 °F
N
6
Wind Variable Wind from West

Today
High -- | Low -- °F
--% Chance of Precip.
Yesterday
High -- | Low -- °F
Precip. -- in
Pressure 30.31 in
Visibility 5.0 miles
Clouds Mostly Cloudy 3700 ft
Overcast 4700 ft
Windchill 20 °F
Dew Point 25 °F
Humidity 95%
Rainfall 0.00 in
Snow Depth Not available.
7:56 AM 5:04 PM
Waxing Gibbous, 73% visible
METAR KTEW 091053Z AUTO 28005KT 5SM -SN BKN037 OVC047 M03/M04 A3031 RMK AO2 T10301037
Pressure 30.31 in
Visibility 5.0 miles
Clouds Mostly Cloudy 3700 ft
Overcast 4700 ft
Windchill 20 °F
Dew Point 25 °F
Humidity 95%
Rainfall 0.00 in
Snow Depth Not available.
7:56 AM 5:04 PM
Waxing Gibbous, 73% visible
METAR KTEW 091053Z AUTO 28005KT 5SM -SN BKN037 OVC047 M03/M04 A3031 RMK AO2 T10301037

10-Day Weather Forecast

Almanac

Astronomy

Dec. 09, 2016 Rise Set
Actual Time
Civil Twilight
Nautical Twilight
Astronomical Twilight
Moon
Length of Visible Light
Length of Day
Tomorrow will be .
, % of the Moon is Illuminated

Today's Extremes

State Highs State Lows

Community

WunderPhotos

Upload Photos

1,956,378 photos uploaded!

WunderBlog® & News

Nearby

Air Quality

  Air Quality AQ Index Pollutant
Not available.

Snow Depth

Station Depth Elevation

Earthquake Activity

City Distance Mag. Time & Date
Minimum magnitude displayed is 2.5.

Coastal Water Temperatures

Place Temperature

Stations

Nearby Weather Stations

Station Location Temp. Windchill Dew Point Humidity Wind Precip. Elev Updated Type
                   

Watches & Warnings

There are currently no watches in effect.